createdAt,value
2022-09-13T00:06:39.433Z,20.00
2022-09-13T00:14:43.958Z,16.25
2022-09-13T00:18:46.314Z,20.00
2022-09-13T00:22:48.250Z,18.38
2022-09-13T00:30:52.396Z,14.53
2022-09-13T00:34:54.254Z,19.42
2022-09-13T00:38:56.191Z,16.58
2022-09-13T00:47:00.649Z,15.43
2022-09-13T00:51:03.854Z,19.35
2022-09-13T00:55:13.591Z,16.90
2022-09-13T00:59:31.898Z,18.17
2022-09-13T01:03:35.657Z,18.83
2022-09-13T01:07:38.270Z,22.48
2022-09-13T01:11:49.210Z,22.77
2022-09-13T01:15:52.040Z,21.00
2022-09-13T01:19:54.274Z,20.88
2022-09-13T01:24:05.284Z,24.17
2022-09-13T01:28:38.078Z,22.35
2022-09-13T01:32:58.041Z,24.30
2022-09-13T01:37:41.910Z,21.45
2022-09-13T01:42:11.066Z,25.55
2022-09-13T01:46:24.784Z,23.58
2022-09-13T01:50:29.536Z,20.65
2022-09-13T01:54:40.487Z,20.48
2022-09-13T01:59:04.309Z,16.60
2022-09-13T02:03:18.511Z,19.45
2022-09-13T02:07:27.793Z,15.35
2022-09-13T02:11:31.298Z,12.90
2022-09-13T02:15:45.113Z,16.42
2022-09-13T02:19:58.298Z,9.65
2022-09-13T02:24:12.266Z,6.90
2022-09-13T02:28:21.771Z,6.60
2022-09-13T02:32:52.762Z,7.85
2022-09-13T02:36:56.426Z,5.15
2022-09-13T02:41:16.384Z,7.03
2022-09-13T02:45:21.423Z,10.27
2022-09-13T02:49:44.141Z,13.68
2022-09-13T02:54:23.080Z,9.32
2022-09-13T02:58:27.377Z,15.32
2022-09-13T03:02:33.487Z,15.52
2022-09-13T03:06:35.442Z,13.85
2022-09-13T03:11:12.658Z,17.10
2022-09-13T03:15:14.445Z,13.90
2022-09-13T03:19:35.862Z,10.45
2022-09-13T03:23:37.887Z,13.53
2022-09-13T03:32:00.205Z,9.65
2022-09-13T03:36:40.363Z,9.57
2022-09-13T03:41:04.754Z,10.90
2022-09-13T03:45:09.173Z,14.07
2022-09-13T03:49:15.480Z,13.02
2022-09-13T03:53:26.064Z,9.43
2022-09-13T03:57:27.992Z,11.88
2022-09-13T04:01:30.114Z,11.30
2022-09-13T04:05:32.045Z,13.20
2022-09-13T04:09:34.203Z,7.78
2022-09-13T04:13:36.942Z,9.50
2022-09-13T04:17:38.809Z,8.05
2022-09-13T04:21:41.143Z,7.05
2022-09-13T04:25:43.017Z,7.03
2022-09-13T04:29:44.949Z,7.53
2022-09-13T04:33:46.854Z,13.10
2022-09-13T04:37:48.781Z,9.43
2022-09-13T04:41:52.043Z,12.13
2022-09-13T04:45:53.963Z,10.75
2022-09-13T04:49:55.925Z,8.65
2022-09-13T04:53:57.784Z,7.93
2022-09-13T04:57:59.642Z,9.05
2022-09-13T05:02:01.560Z,12.65
2022-09-13T05:06:04.350Z,8.90
2022-09-13T05:10:06.782Z,9.50
2022-09-13T05:14:12.299Z,10.40
2022-09-13T05:18:14.240Z,12.73
2022-09-13T05:22:16.127Z,15.25
2022-09-13T05:26:18.545Z,10.57
2022-09-13T05:30:20.827Z,9.18
2022-09-13T05:34:22.724Z,10.32
2022-09-13T05:38:25.048Z,12.02
2022-09-13T05:42:26.936Z,8.23
2022-09-13T05:46:28.891Z,8.98
2022-09-13T05:54:52.638Z,12.23
2022-09-13T05:58:55.450Z,11.30
2022-09-13T06:02:57.383Z,11.70
2022-09-13T06:06:59.243Z,9.80
2022-09-13T06:11:02.482Z,11.68
2022-09-13T06:15:04.683Z,8.20
2022-09-13T06:19:06.911Z,11.02
2022-09-13T06:23:08.816Z,12.02
2022-09-13T06:27:10.779Z,14.27
2022-09-13T06:31:15.129Z,10.77
2022-09-13T06:35:17.977Z,11.77
2022-09-13T06:39:19.844Z,8.57
2022-09-13T06:43:21.673Z,9.38
2022-09-13T06:47:23.630Z,9.20
2022-09-13T06:51:26.176Z,9.73
2022-09-13T06:55:28.151Z,9.38
2022-09-13T06:59:30.051Z,10.05
2022-09-13T07:03:31.944Z,15.73
2022-09-13T07:07:33.813Z,7.00
2022-09-13T07:11:41.094Z,14.30
2022-09-13T07:15:42.967Z,7.80
2022-09-13T07:19:44.920Z,8.98
2022-09-13T07:23:47.000Z,7.07
2022-09-13T07:31:54.542Z,9.90
2022-09-13T07:35:57.717Z,6.47
2022-09-13T07:39:59.803Z,7.00
2022-09-13T07:44:02.197Z,9.43
2022-09-13T07:48:04.191Z,4.10
2022-09-13T07:56:12.024Z,11.65
2022-09-13T08:00:14.450Z,11.95
2022-09-13T08:04:18.979Z,5.70
2022-09-13T08:08:20.867Z,5.97
2022-09-13T08:12:22.829Z,11.63
2022-09-13T08:20:27.449Z,7.40
2022-09-13T08:24:29.482Z,8.70
2022-09-13T08:36:36.176Z,9.35
2022-09-13T08:40:44.152Z,8.15
2022-09-13T08:44:54.265Z,10.40
2022-09-13T08:49:00.987Z,14.68
2022-09-13T08:53:18.285Z,8.35
2022-09-13T08:57:38.612Z,10.13
2022-09-13T09:01:48.500Z,8.63
2022-09-13T09:05:52.347Z,9.23
2022-09-13T09:10:01.717Z,10.52
2022-09-13T09:14:33.244Z,7.43
2022-09-13T09:18:44.782Z,10.27
2022-09-13T09:22:48.752Z,7.63
2022-09-13T09:26:50.894Z,6.75
2022-09-13T09:31:14.421Z,9.30
2022-09-13T09:35:34.282Z,6.75
2022-09-13T09:39:39.983Z,6.80
2022-09-13T09:43:49.730Z,7.88
2022-09-13T09:47:53.523Z,6.20
2022-09-13T09:51:56.583Z,11.23
2022-09-13T09:56:17.467Z,6.18
2022-09-13T10:00:20.610Z,10.02
2022-09-13T10:04:23.020Z,8.48
2022-09-13T10:08:31.796Z,9.52
2022-09-13T10:12:36.140Z,10.10
2022-09-13T10:16:38.119Z,7.45
2022-09-13T10:24:42.000Z,10.23
2022-09-13T10:32:56.832Z,10.77
2022-09-13T10:37:04.541Z,9.95
2022-09-13T10:41:21.969Z,8.80
2022-09-13T10:45:27.421Z,11.00
2022-09-13T10:49:50.641Z,8.50
2022-09-13T10:54:17.728Z,12.43
2022-09-13T10:58:20.214Z,8.15
2022-09-13T11:02:59.262Z,15.13
2022-09-13T11:07:22.052Z,14.55
2022-09-13T11:11:38.282Z,11.98
2022-09-13T11:16:04.458Z,12.85
2022-09-13T11:20:13.321Z,12.15
2022-09-13T11:24:40.377Z,11.13
2022-09-13T11:28:51.557Z,13.45
2022-09-13T11:33:12.337Z,9.37
2022-09-13T11:37:14.363Z,5.80
2022-09-13T11:41:28.275Z,8.65
2022-09-13T11:45:36.193Z,11.05
2022-09-13T11:49:47.209Z,6.78
2022-09-13T11:54:01.085Z,7.00
2022-09-13T11:58:06.307Z,11.00
2022-09-13T12:02:37.074Z,11.30
2022-09-13T12:06:46.410Z,8.40
2022-09-13T12:10:53.830Z,11.25
2022-09-13T12:15:04.996Z,11.98
2022-09-13T12:19:28.618Z,5.40
2022-09-13T12:23:36.107Z,9.48
2022-09-13T12:27:56.889Z,10.32
2022-09-13T12:32:02.675Z,6.68
2022-09-13T12:36:26.479Z,9.23
2022-09-13T12:40:53.770Z,8.45
2022-09-13T12:45:04.409Z,7.97
2022-09-13T12:49:35.210Z,11.73
2022-09-13T12:53:55.913Z,8.25
2022-09-13T12:58:06.825Z,9.27
2022-09-13T13:02:30.762Z,4.57
2022-09-13T13:06:37.453Z,7.75
2022-09-13T13:10:39.358Z,6.13
2022-09-13T13:18:48.583Z,6.20
2022-09-13T13:22:52.281Z,6.82
2022-09-13T13:26:56.975Z,5.57
2022-09-13T13:30:59.243Z,3.80
2022-09-13T13:35:38.978Z,6.40
2022-09-13T13:39:46.208Z,7.60
2022-09-13T13:43:48.096Z,7.85
2022-09-13T13:48:06.116Z,6.63
2022-09-13T13:52:11.539Z,5.60
2022-09-13T13:56:19.214Z,6.82
2022-09-13T14:00:24.367Z,6.22
2022-09-13T14:04:51.458Z,6.18
2022-09-13T14:09:11.391Z,7.22
2022-09-13T14:13:37.692Z,5.82
2022-09-13T14:18:21.588Z,8.45
2022-09-13T14:22:24.430Z,10.55
2022-09-13T14:26:26.457Z,6.60
2022-09-13T14:34:38.762Z,7.43
2022-09-13T14:38:57.182Z,8.38
2022-09-13T14:42:59.110Z,11.98
2022-09-13T14:51:26.741Z,6.53
2022-09-13T14:55:33.612Z,8.10
2022-09-13T15:00:00.933Z,6.03
2022-09-13T15:04:04.845Z,9.13
